Terminal Aerodrome Forecast
Issued by NWS

Home | Current Version | Previous Version | Text Only | Print | Product List | Glossary On
Versions: 1 2 3 4 5 6 7 8 9 10 11 12 13 14
000
FTUS46 KMTR 282300
TAFMRY
TAF
KMRY 282336Z 2900/2924 26008KT P6SM BKN012
     FM290300 24007KT P6SM OVC009
     FM290800 23004KT P6SM OVC005
     FM291700 VRB03KT P6SM SCT008 BKN011
     FM292100 29006KT P6SM SCT012=

USA.gov is the U.S. government's official web portal to all federal, state and local government web resources and services.